Airfield :
LOGIN :

Register | Disclaimer

   EN    FR    IT 

 










Legend :    VFR   Marginal VFR   IFR   Intensive IFR   Very Intensive IFR
Visi :
Ceiling :
>= 8 km
>= 3000ft
5 to 8 km
1000 to 3000 ft
1500m to 5 km
500 to 1000 ft
800 to 1500m
200 to 500 ft
< 800m
< 200 ft
Symbols :   Thunderstorms  Fog  Heavy snow  Heavy precipitations  Wind > 20 kt
SIGMETs :     Misc.  Thunderstorms  Icing  Turbulence  Mountain Waves  Volcanic Ashes







- Airport Elevation : 1260 ft
- IATA code : LDE
- Download approach charts


LFBT - Tarbes / Ossun

CURRENT METAR :
  • 220600Z AUTO 25007KT 9999 SCT019 BKN028 BKN040 11/10 Q1027 NOSIG

EXPIRED METARs :
  • 220530Z AUTO 25008KT 9999 FEW005 SCT039 OVC045 11/09 Q1027 NOSIG
  • 220500Z AUTO 25007KT 9999 FEW012 SCT023 BKN043 11/10 Q1027 NOSIG
  • 220430Z AUTO 26007KT 9999 SCT018 BKN024 BKN034 11/10 Q1027 NOSIG
  • 220400Z AUTO 25007KT 9999 FEW022 BKN035 OVC047 11/10 Q1027 NOSIG
  • 220330Z AUTO 25008KT 9999 FEW034 OVC045 11/10 Q1027 NOSIG

TAF TAF LFBT
Valid from the 22 at 06:00 until the 23 at 06:00 UTC


220500Z 2206/2306 25008KT 9999 FEW010 BKN040
TEMPO 2216/2221 4000 -RADZ OVC005
BECMG 2221/2223 BKN020
No reported NOTAMs for that airfield.
1 SIGMET reported for the Bordeaux FIR (LFBB) :
 
Severe turbulence
LFBB SIGMET 1 VALID 220400/220700 LFPW
LFBB BORDEAUX FIR/UIR SEV TURB FCST WI N4545 E00300 - N4215 E00230 - N4230 E00130 - N4545 E00215 - N4545 E00300 SFC/FL080 STNR NC=



MET'MAP, your aeronautical weather chart ! - Copyright ORBIFLY December 2007 - Disclaimer

ORBIFLY MET'MAP TEAM :

Programming & Development : Alexandra Zaïnal
Concept & Development : Baudouin d'Aumeries
Co-Development & Prog : Marc-Olivier Méhu
Technical & hardware support : Manuel Goepfert

Contact : metmap@orbifly.com




SOURCES & CREDITS :

   NOAA